createdAt,value
2019-04-26T00:00:11.960Z,3.60
2019-04-26T00:00:50.195Z,1.90
2019-04-26T00:01:27.081Z,1.40
2019-04-26T00:02:12.278Z,1.57
2019-04-26T00:02:53.022Z,1.30
2019-04-26T00:03:34.062Z,3.80
2019-04-26T00:04:10.830Z,1.73
2019-04-26T00:04:47.999Z,1.53
2019-04-26T00:05:33.987Z,2.07
2019-04-26T00:06:01.207Z,1.50
2019-04-26T00:06:36.772Z,1.40
2019-04-26T00:07:12.538Z,2.30
2019-04-26T00:07:49.515Z,1.50
2019-04-26T00:08:25.204Z,2.10
2019-04-26T00:09:11.794Z,2.00
2019-04-26T00:09:47.226Z,1.60
2019-04-26T00:10:44.905Z,1.60
2019-04-26T00:11:27.203Z,2.20
2019-04-26T00:12:22.519Z,1.73
2019-04-26T00:13:20.301Z,2.70
2019-04-26T00:14:27.205Z,1.80
2019-04-26T00:15:24.936Z,2.37
2019-04-26T00:16:22.963Z,4.33
2019-04-26T00:17:26.700Z,2.87
2019-04-26T00:18:02.865Z,2.70
2019-04-26T00:18:39.551Z,2.50
2019-04-26T00:19:15.758Z,3.17
2019-04-26T00:19:51.522Z,1.50
2019-04-26T00:20:27.591Z,3.00
2019-04-26T00:21:03.052Z,3.20
2019-04-26T00:21:38.515Z,1.43
2019-04-26T00:22:15.285Z,2.43
2019-04-26T00:22:51.251Z,2.30
2019-04-26T00:23:26.787Z,3.93
2019-04-26T00:24:02.874Z,2.33
2019-04-26T00:24:38.682Z,2.00
2019-04-26T00:25:14.554Z,2.50
2019-04-26T00:25:50.858Z,2.47
2019-04-26T00:26:26.865Z,1.63
2019-04-26T00:27:02.711Z,2.27
2019-04-26T00:27:38.579Z,2.27
2019-04-26T00:28:14.647Z,2.63
2019-04-26T00:28:50.190Z,2.30
2019-04-26T00:29:26.196Z,2.30
2019-04-26T00:30:02.279Z,2.20
2019-04-26T00:30:38.533Z,1.63
2019-04-26T00:31:15.136Z,2.10
2019-04-26T00:31:50.726Z,2.87
2019-04-26T00:32:26.782Z,1.90
2019-04-26T00:33:02.624Z,2.23
2019-04-26T00:33:38.011Z,1.80
2019-04-26T00:34:13.925Z,2.83
2019-04-26T00:34:49.821Z,1.77
2019-04-26T00:35:25.737Z,2.33
2019-04-26T00:36:01.501Z,2.23
2019-04-26T00:36:36.978Z,2.97
2019-04-26T00:37:14.067Z,2.17
2019-04-26T00:37:49.732Z,2.40
2019-04-26T00:38:25.174Z,2.97
2019-04-26T00:39:00.970Z,2.03
2019-04-26T00:39:36.440Z,2.07
2019-04-26T00:40:13.335Z,2.43
2019-04-26T00:40:51.440Z,2.30
2019-04-26T00:41:28.077Z,2.10
2019-04-26T00:42:04.821Z,2.73
2019-04-26T00:42:40.398Z,2.87
2019-04-26T00:43:16.423Z,2.30
2019-04-26T00:43:53.143Z,2.60
2019-04-26T00:44:29.513Z,2.10
2019-04-26T00:45:05.019Z,2.17
2019-04-26T00:45:41.660Z,2.10
2019-04-26T00:46:19.286Z,2.47
2019-04-26T00:46:56.767Z,3.00
2019-04-26T00:47:33.776Z,2.30
2019-04-26T00:48:12.556Z,2.33
2019-04-26T00:48:52.376Z,4.00
2019-04-26T00:49:29.804Z,2.40
2019-04-26T00:50:07.942Z,2.50
2019-04-26T00:50:45.342Z,3.17
2019-04-26T00:51:21.720Z,3.03
2019-04-26T00:51:57.577Z,2.57
2019-04-26T00:52:33.529Z,3.33
2019-04-26T00:53:09.671Z,3.57
2019-04-26T00:53:46.679Z,3.03
2019-04-26T00:54:24.351Z,3.03
2019-04-26T00:55:01.926Z,2.67
2019-04-26T00:55:38.271Z,2.77
2019-04-26T00:56:14.681Z,2.90
2019-04-26T00:56:51.648Z,2.63
2019-04-26T00:57:28.008Z,3.30
2019-04-26T00:58:05.209Z,2.73
2019-04-26T00:58:41.238Z,3.33
2019-04-26T00:59:18.334Z,4.07
2019-04-26T00:59:54.782Z,2.90
2019-04-26T01:00:30.246Z,2.93
2019-04-26T01:01:06.368Z,3.17
2019-04-26T01:01:46.089Z,2.80
2019-04-26T01:02:30.463Z,2.40
2019-04-26T01:03:06.012Z,2.40
2019-04-26T01:03:41.976Z,2.60
2019-04-26T01:04:18.779Z,3.10
2019-04-26T01:04:54.300Z,4.43
2019-04-26T01:05:31.689Z,2.80
2019-04-26T01:06:09.599Z,4.93
2019-04-26T01:06:46.729Z,2.80
2019-04-26T01:07:23.213Z,6.13
2019-04-26T01:07:59.322Z,3.03
2019-04-26T01:08:34.777Z,3.07
2019-04-26T01:09:10.484Z,2.60
2019-04-26T01:09:45.953Z,3.23
2019-04-26T01:10:21.756Z,4.43
2019-04-26T01:10:57.938Z,2.73
2019-04-26T01:11:33.717Z,3.13
2019-04-26T01:12:09.617Z,3.67
2019-04-26T01:12:45.393Z,2.83
2019-04-26T01:13:21.957Z,3.13
2019-04-26T01:13:58.124Z,2.47
2019-04-26T01:14:33.563Z,2.63
2019-04-26T01:15:09.032Z,3.70
2019-04-26T01:15:45.096Z,4.53
2019-04-26T01:16:20.525Z,2.90
2019-04-26T01:16:56.066Z,3.50
2019-04-26T01:17:32.212Z,2.57
2019-04-26T01:18:08.054Z,2.80
2019-04-26T01:18:45.153Z,4.73
2019-04-26T01:19:22.473Z,5.87
2019-04-26T01:20:00.030Z,3.37
2019-04-26T01:20:36.700Z,2.70
2019-04-26T01:21:17.173Z,3.80
2019-04-26T01:21:57.871Z,4.30
2019-04-26T01:22:36.322Z,3.20
2019-04-26T01:23:14.743Z,4.10
2019-04-26T01:23:54.036Z,2.87
2019-04-26T01:24:32.809Z,4.53
2019-04-26T01:25:09.840Z,2.50
2019-04-26T01:26:01.206Z,2.80
2019-04-26T01:26:38.295Z,3.07
2019-04-26T01:27:17.126Z,2.93
2019-04-26T01:27:54.770Z,2.80
2019-04-26T01:28:42.564Z,3.30
2019-04-26T01:29:19.690Z,3.57
2019-04-26T01:29:58.541Z,3.23
2019-04-26T01:30:35.741Z,3.70
2019-04-26T01:31:12.559Z,3.00
2019-04-26T01:31:59.364Z,3.20
2019-04-26T01:32:38.255Z,3.73
2019-04-26T01:33:14.421Z,3.47
2019-04-26T01:33:50.573Z,3.33
2019-04-26T01:34:26.309Z,3.40
2019-04-26T01:35:01.944Z,4.00
2019-04-26T01:35:38.002Z,3.27
2019-04-26T01:36:14.461Z,2.67
2019-04-26T01:36:53.034Z,5.93
2019-04-26T01:37:30.963Z,3.40
2019-04-26T01:38:08.469Z,4.00
2019-04-26T01:38:46.613Z,2.90
2019-04-26T01:39:23.724Z,3.37
2019-04-26T01:40:05.550Z,2.90
2019-04-26T01:40:42.038Z,5.20
2019-04-26T01:41:26.161Z,2.93
2019-04-26T01:42:20.973Z,4.37
2019-04-26T01:43:08.815Z,4.23
2019-04-26T01:44:21.745Z,2.93
2019-04-26T01:45:15.155Z,2.93
2019-04-26T01:46:00.195Z,2.57
2019-04-26T01:46:41.578Z,3.87
2019-04-26T01:47:17.962Z,3.23
2019-04-26T01:47:56.375Z,3.17
2019-04-26T01:48:46.227Z,3.53
2019-04-26T01:49:24.221Z,3.00
2019-04-26T01:50:00.171Z,2.57
2019-04-26T01:50:36.846Z,2.60
2019-04-26T01:51:16.729Z,2.80
2019-04-26T01:52:07.166Z,3.23
2019-04-26T01:52:45.021Z,3.63
2019-04-26T01:53:21.138Z,2.67
2019-04-26T01:53:57.171Z,5.47
2019-04-26T01:54:38.216Z,4.87
2019-04-26T01:55:14.597Z,3.60
2019-04-26T01:55:50.480Z,2.83
2019-04-26T01:56:31.421Z,3.40
2019-04-26T01:57:07.838Z,3.13
2019-04-26T01:57:44.146Z,2.80
2019-04-26T01:58:21.831Z,5.70
2019-04-26T01:58:57.004Z,3.53
2019-04-26T01:59:37.083Z,3.03
2019-04-26T02:00:24.061Z,2.77
2019-04-26T02:01:17.054Z,3.13
2019-04-26T02:02:17.912Z,2.47
2019-04-26T02:02:59.932Z,4.10
2019-04-26T02:03:35.381Z,3.63
2019-04-26T02:04:11.030Z,3.47
2019-04-26T02:04:48.745Z,3.70
2019-04-26T02:05:26.020Z,3.43
2019-04-26T02:06:02.044Z,3.50
2019-04-26T02:06:38.589Z,4.30
2019-04-26T02:07:16.861Z,3.83
2019-04-26T02:07:52.719Z,3.83
2019-04-26T02:08:28.307Z,4.17
2019-04-26T02:09:05.350Z,3.40
2019-04-26T02:09:40.794Z,3.10
2019-04-26T02:10:23.375Z,3.10
2019-04-26T02:10:58.663Z,3.17
2019-04-26T02:11:34.134Z,4.13
2019-04-26T02:12:09.785Z,3.57
2019-04-26T02:12:48.787Z,4.10
2019-04-26T02:13:25.368Z,4.20
2019-04-26T02:14:01.321Z,3.70
2019-04-26T02:14:36.876Z,3.60
2019-04-26T02:15:12.674Z,3.40
2019-04-26T02:15:48.374Z,3.70
2019-04-26T02:16:25.050Z,3.50
2019-04-26T02:17:02.981Z,3.47
2019-04-26T02:17:39.189Z,3.57
2019-04-26T02:18:15.898Z,2.97
2019-04-26T02:18:52.122Z,3.53
2019-04-26T02:19:28.010Z,3.53
2019-04-26T02:20:05.113Z,4.83
2019-04-26T02:21:05.466Z,6.77
2019-04-26T02:21:51.775Z,3.27
2019-04-26T02:22:34.185Z,3.50
2019-04-26T02:23:17.356Z,3.00
2019-04-26T02:24:23.905Z,5.60
2019-04-26T02:25:00.837Z,3.63
2019-04-26T02:25:36.517Z,3.50
2019-04-26T02:26:32.583Z,4.23
2019-04-26T02:27:17.617Z,3.40
2019-04-26T02:27:53.066Z,3.83
2019-04-26T02:28:28.550Z,3.80
2019-04-26T02:29:07.449Z,3.53
2019-04-26T02:29:43.656Z,5.07
2019-04-26T02:30:19.252Z,4.23
2019-04-26T02:30:55.691Z,3.97
2019-04-26T02:31:33.379Z,3.77
2019-04-26T02:32:09.426Z,3.50
2019-04-26T02:32:44.848Z,5.83
2019-04-26T02:33:21.187Z,5.37
2019-04-26T02:33:57.055Z,3.87
2019-04-26T02:34:37.165Z,3.40
2019-04-26T02:35:12.267Z,3.40
2019-04-26T02:35:50.612Z,4.87
2019-04-26T02:36:46.423Z,3.37
2019-04-26T02:37:06.806Z,3.57
2019-04-26T02:37:42.688Z,4.37
2019-04-26T02:38:18.847Z,4.10
2019-04-26T02:38:56.200Z,4.00
2019-04-26T02:39:38.977Z,4.10
2019-04-26T02:40:17.130Z,3.60
2019-04-26T02:40:53.575Z,4.03
2019-04-26T02:41:31.679Z,3.67
2019-04-26T02:42:19.652Z,3.87
2019-04-26T02:42:56.650Z,3.93
2019-04-26T02:43:33.887Z,3.70
2019-04-26T02:44:12.617Z,7.80
2019-04-26T02:45:13.450Z,3.93
2019-04-26T02:46:15.804Z,4.00
2019-04-26T02:47:19.257Z,4.00
2019-04-26T02:48:14.506Z,4.00
2019-04-26T02:49:22.508Z,3.43
2019-04-26T02:50:01.670Z,3.87
2019-04-26T02:50:44.031Z,4.10
2019-04-26T02:51:24.460Z,4.53
2019-04-26T02:52:06.549Z,4.33
2019-04-26T02:52:57.475Z,5.70
2019-04-26T02:53:53.085Z,5.53
2019-04-26T02:54:46.249Z,5.87
2019-04-26T02:56:05.861Z,5.60
2019-04-26T02:56:44.117Z,3.90
2019-04-26T02:57:30.997Z,3.63
2019-04-26T02:58:06.463Z,5.83
2019-04-26T02:59:02.491Z,3.70
2019-04-26T02:59:44.201Z,4.20
2019-04-26T03:00:20.853Z,5.17
2019-04-26T03:00:58.351Z,3.97
2019-04-26T03:01:35.978Z,4.83
2019-04-26T03:02:22.059Z,4.20
2019-04-26T03:03:04.213Z,4.40
2019-04-26T03:03:39.849Z,4.77
2019-04-26T03:04:15.463Z,4.40
2019-04-26T03:04:55.689Z,4.57
2019-04-26T03:05:35.744Z,4.33
2019-04-26T03:06:11.457Z,4.07
2019-04-26T03:07:02.484Z,4.80
2019-04-26T03:07:39.117Z,4.57
2019-04-26T03:08:17.188Z,4.67
2019-04-26T03:08:54.668Z,4.77
2019-04-26T03:09:34.724Z,5.77
2019-04-26T03:10:10.977Z,5.33
2019-04-26T03:11:07.196Z,4.83
2019-04-26T03:11:45.556Z,4.90
2019-04-26T03:12:24.614Z,4.40
2019-04-26T03:13:04.102Z,4.80
2019-04-26T03:14:01.000Z,4.57
2019-04-26T03:14:49.557Z,4.73
2019-04-26T03:15:42.660Z,4.50
2019-04-26T03:16:31.407Z,5.27
2019-04-26T03:17:16.446Z,4.67
2019-04-26T03:17:59.972Z,4.00
2019-04-26T03:19:08.104Z,4.07
2019-04-26T03:19:52.646Z,5.97
2019-04-26T03:20:42.149Z,6.53
2019-04-26T03:21:25.757Z,4.20
2019-04-26T03:22:10.142Z,5.23
2019-04-26T03:23:15.159Z,6.57
2019-04-26T03:24:00.994Z,6.73
2019-04-26T03:24:54.374Z,5.97
2019-04-26T03:26:09.304Z,5.53
2019-04-26T03:27:10.777Z,5.30
2019-04-26T03:27:57.571Z,5.00
2019-04-26T03:28:43.787Z,5.30
2019-04-26T03:29:51.568Z,5.17
2019-04-26T03:30:53.126Z,7.47
2019-04-26T03:32:24.554Z,6.20
2019-04-26T03:33:42.131Z,6.30
2019-04-26T03:34:25.194Z,5.73
2019-04-26T03:35:28.922Z,5.90
2019-04-26T03:36:27.652Z,6.60
2019-04-26T03:37:39.828Z,5.63
2019-04-26T03:38:28.685Z,7.13
2019-04-26T03:39:21.920Z,6.73
2019-04-26T03:40:29.122Z,5.90
2019-04-26T03:41:12.928Z,6.07
2019-04-26T03:42:14.872Z,6.60
2019-04-26T03:43:12.889Z,7.07
2019-04-26T03:44:12.594Z,8.27
2019-04-26T03:45:01.134Z,6.63
2019-04-26T03:45:57.416Z,6.70
2019-04-26T03:46:41.236Z,6.93
2019-04-26T03:47:20.749Z,5.97
2019-04-26T03:48:14.393Z,7.13
2019-04-26T03:49:14.056Z,6.30
2019-04-26T03:50:19.269Z,6.67
2019-04-26T03:51:07.082Z,6.77
2019-04-26T03:52:15.404Z,7.67
2019-04-26T03:53:35.545Z,7.13
2019-04-26T03:54:17.125Z,7.70
2019-04-26T03:54:56.505Z,6.90
2019-04-26T03:56:05.080Z,7.13
2019-04-26T03:57:18.630Z,8.57
2019-04-26T03:58:00.716Z,8.87
2019-04-26T03:59:06.099Z,7.47
2019-04-26T04:00:43.025Z,6.90
2019-04-26T04:01:20.634Z,7.80
2019-04-26T04:02:24.516Z,7.40
2019-04-26T04:03:28.238Z,7.50
2019-04-26T04:04:22.720Z,7.47
2019-04-26T04:05:15.851Z,7.67
2019-04-26T04:05:54.525Z,8.00
2019-04-26T04:06:48.718Z,8.20
2019-04-26T04:07:13.387Z,7.80
2019-04-26T04:07:51.761Z,7.87
2019-04-26T04:08:39.762Z,8.07
2019-04-26T04:09:18.008Z,8.57
2019-04-26T04:09:59.681Z,7.87
2019-04-26T04:10:46.028Z,6.97
2019-04-26T04:11:26.125Z,8.80
2019-04-26T04:12:11.513Z,7.37
2019-04-26T04:13:18.581Z,6.93
2019-04-26T04:14:03.551Z,6.63
2019-04-26T04:14:54.203Z,6.57
2019-04-26T04:15:38.571Z,7.43
2019-04-26T04:16:31.960Z,7.73
2019-04-26T04:17:21.243Z,7.40
2019-04-26T04:18:05.183Z,7.37
2019-04-26T04:18:45.430Z,7.10
2019-04-26T04:20:05.576Z,6.93
2019-04-26T04:21:38.643Z,6.40
2019-04-26T04:22:16.530Z,5.97
2019-04-26T04:23:09.074Z,6.83
2019-04-26T04:24:05.291Z,5.80
2019-04-26T04:24:52.817Z,7.10
2019-04-26T04:25:34.062Z,6.37
2019-04-26T04:26:11.021Z,8.50
2019-04-26T04:27:11.241Z,7.17
2019-04-26T04:27:52.688Z,5.47
2019-04-26T04:29:46.265Z,6.00
2019-04-26T04:30:29.751Z,7.27
2019-04-26T04:31:18.289Z,6.27
2019-04-26T04:31:57.412Z,6.50
2019-04-26T04:33:00.102Z,6.70
2019-04-26T04:33:56.376Z,5.73
2019-04-26T04:34:40.118Z,6.47
2019-04-26T04:35:18.883Z,7.10
2019-04-26T04:36:00.319Z,7.70
2019-04-26T04:36:43.893Z,6.43
2019-04-26T04:37:20.824Z,6.23
2019-04-26T04:38:09.164Z,8.17
2019-04-26T04:39:12.166Z,7.00
2019-04-26T04:40:49.082Z,6.97
2019-04-26T04:41:41.213Z,6.17
2019-04-26T04:42:36.654Z,6.97
2019-04-26T04:43:26.824Z,6.70
2019-04-26T04:45:01.668Z,8.77
2019-04-26T04:46:25.620Z,5.87
2019-04-26T04:47:33.213Z,7.60
2019-04-26T04:48:24.716Z,7.40
2019-04-26T04:49:30.485Z,7.43
2019-04-26T04:50:18.481Z,6.83
2019-04-26T04:51:26.738Z,6.53
2019-04-26T04:52:35.529Z,8.40
2019-04-26T04:53:36.269Z,7.10
2019-04-26T04:54:19.559Z,7.60
2019-04-26T04:55:07.224Z,7.10
2019-04-26T04:55:54.276Z,7.43
2019-04-26T04:57:30.004Z,7.53
2019-04-26T04:58:22.868Z,8.63
2019-04-26T04:59:02.362Z,11.13
2019-04-26T04:59:53.951Z,9.17
2019-04-26T05:01:18.582Z,7.53
2019-04-26T05:02:21.174Z,9.73
2019-04-26T05:03:25.559Z,8.20
2019-04-26T05:04:21.032Z,8.07
2019-04-26T05:05:18.380Z,8.40
2019-04-26T05:06:29.275Z,9.33
2019-04-26T05:07:32.265Z,9.90
2019-04-26T05:08:56.415Z,9.37
2019-04-26T05:09:39.457Z,10.70
2019-04-26T05:10:41.624Z,8.23
2019-04-26T05:11:23.723Z,8.60
2019-04-26T05:12:27.137Z,10.07
2019-04-26T05:13:15.728Z,10.43
2019-04-26T05:14:09.993Z,13.90
2019-04-26T05:14:59.152Z,10.63
2019-04-26T05:16:20.502Z,10.63
2019-04-26T05:17:22.768Z,9.27
2019-04-26T05:18:28.403Z,10.43
2019-04-26T05:19:44.238Z,9.87
2019-04-26T05:20:28.773Z,9.47
2019-04-26T05:21:26.148Z,10.40
2019-04-26T05:22:31.210Z,10.63
2019-04-26T05:23:58.770Z,9.73
2019-04-26T05:25:02.111Z,8.77
2019-04-26T05:26:36.968Z,10.20
2019-04-26T05:27:49.173Z,8.97
2019-04-26T05:28:41.194Z,9.17
2019-04-26T05:29:58.034Z,11.30
2019-04-26T05:31:12.963Z,11.03
2019-04-26T05:32:01.350Z,10.07
2019-04-26T05:33:05.324Z,9.70
2019-04-26T05:34:21.638Z,9.80
2019-04-26T05:35:11.877Z,9.30
2019-04-26T05:36:01.069Z,10.03
2019-04-26T05:37:02.094Z,9.93
2019-04-26T05:38:18.620Z,9.13
2019-04-26T05:39:13.070Z,8.73
2019-04-26T05:40:07.507Z,9.17
2019-04-26T05:41:27.980Z,11.03
2019-04-26T05:42:49.763Z,10.13
2019-04-26T05:43:56.393Z,9.40
2019-04-26T05:45:18.814Z,10.47
2019-04-26T05:46:24.591Z,10.83
2019-04-26T05:47:32.857Z,9.93
2019-04-26T05:48:42.211Z,10.37
2019-04-26T05:49:58.983Z,9.60
2019-04-26T05:51:27.327Z,9.37
2019-04-26T05:52:32.988Z,10.67
2019-04-26T05:54:16.041Z,11.27
2019-04-26T05:56:00.640Z,9.60
2019-04-26T05:57:02.654Z,9.93
2019-04-26T05:57:56.377Z,10.97
2019-04-26T05:59:11.462Z,13.50
2019-04-26T06:00:34.633Z,11.57
2019-04-26T06:02:07.212Z,13.07
2019-04-26T06:03:16.314Z,11.00
2019-04-26T06:04:28.770Z,12.27
2019-04-26T06:05:43.506Z,13.77
2019-04-26T06:06:31.908Z,14.27
2019-04-26T06:07:30.822Z,13.03
2019-04-26T06:08:43.513Z,13.30
2019-04-26T06:10:03.011Z,12.23
2019-04-26T06:10:47.278Z,12.87
2019-04-26T06:11:35.040Z,12.90
2019-04-26T06:12:28.722Z,13.03
2019-04-26T06:13:38.937Z,12.33
2019-04-26T06:14:54.703Z,12.83
2019-04-26T06:16:02.432Z,10.93
2019-04-26T06:16:57.684Z,12.97
2019-04-26T06:18:16.491Z,12.70
2019-04-26T06:19:16.572Z,12.87
2019-04-26T06:20:26.456Z,12.43
2019-04-26T06:21:34.703Z,12.03
2019-04-26T06:22:19.442Z,12.37
2019-04-26T06:23:32.123Z,13.23
2019-04-26T06:24:52.626Z,13.23
2019-04-26T06:25:52.166Z,13.00
2019-04-26T06:27:24.345Z,13.03
2019-04-26T06:28:09.713Z,15.07
2019-04-26T06:29:01.049Z,13.43
2019-04-26T06:30:08.210Z,14.47
2019-04-26T06:31:02.150Z,14.97
2019-04-26T06:31:45.418Z,16.97
2019-04-26T06:32:56.562Z,13.73
2019-04-26T06:34:03.366Z,14.57
2019-04-26T06:35:35.158Z,13.23
2019-04-26T06:36:18.220Z,14.40
2019-04-26T06:37:19.500Z,15.50
2019-04-26T06:38:18.558Z,13.63
2019-04-26T06:39:18.245Z,13.57
2019-04-26T06:40:04.459Z,13.87
2019-04-26T06:41:02.676Z,14.03
2019-04-26T06:42:05.846Z,14.77
2019-04-26T06:43:35.112Z,13.30
2019-04-26T06:44:15.629Z,16.77
2019-04-26T06:45:23.625Z,13.77
2019-04-26T06:46:52.294Z,16.10
2019-04-26T06:47:41.743Z,14.60
2019-04-26T06:48:49.499Z,15.83
2019-04-26T06:49:57.624Z,15.27
2019-04-26T06:50:41.557Z,13.53
2019-04-26T06:51:24.780Z,15.10
2019-04-26T06:52:08.521Z,14.40
2019-04-26T06:52:59.560Z,36.70
2019-04-26T06:53:59.166Z,21.23
2019-04-26T06:55:08.492Z,26.23
2019-04-26T06:56:00.823Z,20.50
2019-04-26T06:57:29.260Z,94.27
2019-04-26T06:58:33.821Z,23.13
2019-04-26T06:59:36.068Z,17.60
2019-04-26T07:00:17.487Z,15.03
2019-04-26T07:01:20.913Z,15.60
2019-04-26T07:02:06.127Z,13.70
2019-04-26T07:03:15.348Z,18.70
2019-04-26T07:04:20.944Z,14.17
2019-04-26T07:05:15.473Z,13.30
2019-04-26T07:05:58.752Z,13.47
2019-04-26T07:06:41.234Z,15.37
2019-04-26T07:08:06.997Z,15.00
2019-04-26T07:08:57.512Z,12.67
2019-04-26T07:09:35.174Z,15.37
2019-04-26T07:11:09.532Z,13.23
2019-04-26T07:12:37.661Z,11.93
2019-04-26T07:13:55.863Z,12.80
2019-04-26T07:15:28.340Z,16.93
2019-04-26T07:16:31.022Z,13.03
2019-04-26T07:17:12.237Z,12.30
2019-04-26T07:18:30.964Z,13.67
2019-04-26T07:20:06.089Z,13.93
2019-04-26T07:20:58.068Z,12.73
2019-04-26T07:22:19.631Z,12.43
2019-04-26T07:23:55.405Z,12.97
2019-04-26T07:25:17.836Z,12.83
2019-04-26T07:26:29.859Z,12.27
2019-04-26T07:27:48.145Z,12.23
2019-04-26T07:28:45.619Z,13.07
2019-04-26T07:29:58.662Z,14.13
2019-04-26T07:31:08.242Z,10.70
2019-04-26T07:31:54.924Z,9.40
2019-04-26T07:32:56.879Z,10.27
2019-04-26T07:33:54.459Z,9.50
2019-04-26T07:35:02.757Z,9.93
2019-04-26T07:35:50.391Z,9.60
2019-04-26T07:37:05.469Z,10.27
2019-04-26T07:38:18.718Z,9.83
2019-04-26T07:39:27.524Z,11.37
2019-04-26T07:41:03.745Z,9.50
2019-04-26T07:42:24.666Z,10.43
2019-04-26T07:43:28.702Z,11.20
2019-04-26T07:44:55.268Z,10.43
2019-04-26T07:45:45.650Z,9.10
2019-04-26T07:47:04.144Z,10.87
2019-04-26T07:48:19.440Z,10.67
2019-04-26T07:49:32.065Z,11.00
2019-04-26T07:50:54.480Z,9.57
2019-04-26T07:52:04.405Z,9.30
2019-04-26T07:53:35.952Z,10.23
2019-04-26T07:54:52.980Z,10.73
2019-04-26T07:55:42.399Z,10.03
2019-04-26T07:56:40.401Z,10.10
2019-04-26T07:57:57.878Z,9.67
2019-04-26T07:59:28.971Z,12.10
2019-04-26T08:00:19.613Z,10.10
2019-04-26T08:01:30.669Z,11.47
2019-04-26T08:02:43.130Z,9.57
2019-04-26T08:03:38.053Z,9.43
2019-04-26T08:04:19.129Z,11.33
2019-04-26T08:05:04.274Z,12.93
2019-04-26T08:05:58.377Z,10.60
2019-04-26T08:06:51.958Z,10.23
2019-04-26T08:07:31.148Z,9.63
2019-04-26T08:08:08.687Z,10.40
2019-04-26T08:08:52.532Z,9.27
2019-04-26T08:09:31.320Z,10.90
2019-04-26T08:10:16.913Z,8.93
2019-04-26T08:11:06.620Z,9.07
2019-04-26T08:11:52.918Z,8.73
2019-04-26T08:12:32.434Z,8.83
2019-04-26T08:13:11.518Z,9.70
2019-04-26T08:14:06.091Z,9.17
2019-04-26T08:15:01.317Z,9.70
2019-04-26T08:15:50.076Z,13.87
2019-04-26T08:16:47.504Z,9.77
2019-04-26T08:17:49.271Z,10.70
2019-04-26T08:18:41.220Z,8.73
2019-04-26T08:19:20.126Z,11.33
2019-04-26T08:20:11.455Z,9.03
2019-04-26T08:20:52.524Z,10.30
2019-04-26T08:21:34.282Z,9.50
2019-04-26T08:22:20.321Z,8.27
2019-04-26T08:22:54.820Z,8.53
2019-04-26T08:23:41.389Z,9.90
2019-04-26T08:24:21.733Z,10.37
2019-04-26T08:24:58.473Z,11.40
2019-04-26T08:25:36.838Z,9.60
2019-04-26T08:26:16.191Z,9.50
2019-04-26T08:27:28.228Z,10.27
2019-04-26T08:28:08.421Z,8.20
2019-04-26T08:28:46.666Z,8.63
2019-04-26T08:29:25.290Z,8.87
2019-04-26T08:30:10.089Z,8.93
2019-04-26T08:30:47.611Z,8.83
2019-04-26T08:31:27.555Z,8.47
2019-04-26T08:32:08.887Z,9.87
2019-04-26T08:32:55.015Z,8.90
2019-04-26T08:33:40.500Z,9.60
2019-04-26T08:34:21.183Z,9.17
2019-04-26T08:35:08.217Z,8.33
2019-04-26T08:35:44.345Z,8.07
2019-04-26T08:36:26.696Z,8.33
2019-04-26T08:37:25.816Z,7.67
2019-04-26T08:38:16.195Z,8.83
2019-04-26T08:38:52.446Z,9.03
2019-04-26T08:39:44.564Z,7.53
2019-04-26T08:40:08.759Z,8.90
2019-04-26T08:40:45.019Z,8.23
2019-04-26T08:41:23.463Z,8.53
2019-04-26T08:42:01.708Z,8.60
2019-04-26T08:42:45.482Z,7.63
2019-04-26T08:43:40.317Z,8.70
2019-04-26T08:44:28.631Z,7.67
2019-04-26T08:45:15.231Z,8.57
2019-04-26T08:46:13.074Z,8.90
2019-04-26T08:47:00.744Z,8.20
2019-04-26T08:48:00.124Z,9.00
2019-04-26T08:48:44.235Z,7.83
2019-04-26T08:49:39.164Z,9.43
2019-04-26T08:50:22.231Z,7.77
2019-04-26T08:50:59.733Z,9.43
2019-04-26T08:51:37.835Z,9.80
2019-04-26T08:52:16.736Z,9.30
2019-04-26T08:52:57.830Z,8.90
2019-04-26T08:53:35.118Z,9.00
2019-04-26T08:54:18.614Z,8.60
2019-04-26T08:54:56.549Z,9.77
2019-04-26T08:55:35.261Z,8.30
2019-04-26T08:56:15.299Z,8.10
2019-04-26T08:56:58.027Z,8.10
2019-04-26T08:57:37.249Z,8.33
2019-04-26T08:58:16.050Z,9.37
2019-04-26T08:58:55.588Z,8.50
2019-04-26T08:59:35.574Z,8.57
2019-04-26T09:00:27.150Z,8.30
2019-04-26T09:01:16.009Z,10.37
2019-04-26T09:02:02.508Z,9.50
2019-04-26T09:03:11.651Z,8.97
2019-04-26T09:03:55.964Z,8.50
2019-04-26T09:04:55.830Z,9.50
2019-04-26T09:05:53.039Z,8.97
2019-04-26T09:06:44.436Z,8.03
2019-04-26T09:07:26.138Z,9.27
2019-04-26T09:08:04.014Z,8.10
2019-04-26T09:08:43.447Z,8.33
2019-04-26T09:09:24.367Z,9.03
2019-04-26T09:10:10.746Z,8.30
2019-04-26T09:10:43.243Z,9.33
2019-04-26T09:11:26.437Z,9.53
2019-04-26T09:12:03.941Z,9.67
2019-04-26T09:12:42.055Z,9.47
2019-04-26T09:13:19.699Z,8.67
2019-04-26T09:13:58.210Z,8.87
2019-04-26T09:14:36.739Z,8.83
2019-04-26T09:15:15.347Z,8.83
2019-04-26T09:16:15.192Z,8.07
2019-04-26T09:16:51.059Z,9.80
2019-04-26T09:17:27.730Z,8.83
2019-04-26T09:18:06.037Z,8.57
2019-04-26T09:18:43.980Z,8.80
2019-04-26T09:19:19.199Z,9.27
2019-04-26T09:19:58.021Z,8.00
2019-04-26T09:20:32.283Z,9.27
2019-04-26T09:21:08.282Z,8.10
2019-04-26T09:21:51.767Z,9.47
2019-04-26T09:22:34.694Z,9.07
2019-04-26T09:23:39.499Z,8.07
2019-04-26T09:24:31.766Z,7.33
2019-04-26T09:25:22.756Z,8.53
2019-04-26T09:26:00.946Z,8.43
2019-04-26T09:26:48.523Z,7.80
2019-04-26T09:27:30.954Z,7.70
2019-04-26T09:28:11.694Z,9.33
2019-04-26T09:29:04.557Z,7.93
2019-04-26T09:29:50.046Z,9.80
2019-04-26T09:30:47.550Z,7.83
2019-04-26T09:31:29.981Z,6.90
2019-04-26T09:32:24.206Z,7.00
2019-04-26T09:33:15.231Z,7.77
2019-04-26T09:33:54.805Z,6.53
2019-04-26T09:34:31.060Z,6.30
2019-04-26T09:35:06.856Z,5.90
2019-04-26T09:35:42.761Z,7.37
2019-04-26T09:36:18.941Z,7.03
2019-04-26T09:36:54.413Z,7.37
2019-04-26T09:37:30.692Z,7.37
2019-04-26T09:38:06.153Z,5.73
2019-04-26T09:38:41.592Z,6.47
2019-04-26T09:39:17.336Z,4.73
2019-04-26T09:39:53.359Z,5.47
2019-04-26T09:40:28.889Z,5.20
2019-04-26T09:41:04.403Z,5.00
2019-04-26T09:41:40.554Z,6.57
2019-04-26T09:42:29.640Z,5.03
2019-04-26T09:43:16.567Z,4.90
2019-04-26T09:43:58.952Z,7.63
2019-04-26T09:44:51.585Z,5.40
2019-04-26T09:46:01.428Z,5.13
2019-04-26T09:47:05.788Z,5.13
2019-04-26T09:47:50.662Z,6.87
2019-04-26T09:48:36.924Z,4.70
2019-04-26T09:49:22.431Z,4.53
2019-04-26T09:50:22.004Z,4.17
2019-04-26T09:50:57.822Z,4.33
2019-04-26T09:51:34.870Z,4.63
2019-04-26T09:52:18.438Z,4.40
2019-04-26T09:52:54.020Z,4.83
2019-04-26T09:53:29.873Z,5.03
2019-04-26T09:54:05.819Z,6.37
2019-04-26T09:54:41.291Z,4.83
2019-04-26T09:55:16.840Z,5.00
2019-04-26T09:55:52.413Z,4.80
2019-04-26T09:56:28.008Z,6.03
2019-04-26T09:57:04.043Z,4.90
2019-04-26T09:57:40.017Z,4.70
2019-04-26T09:58:16.481Z,4.67
2019-04-26T09:58:51.975Z,5.60
2019-04-26T09:59:27.580Z,4.67
2019-04-26T10:00:04.066Z,5.23
2019-04-26T10:00:39.862Z,4.83
2019-04-26T10:01:15.301Z,5.57
2019-04-26T10:01:51.052Z,4.40
2019-04-26T10:02:29.511Z,4.77
2019-04-26T10:03:05.398Z,4.67
2019-04-26T10:03:41.000Z,4.80
2019-04-26T10:04:16.543Z,4.27
2019-04-26T10:04:52.063Z,5.13
2019-04-26T10:05:27.539Z,5.47
2019-04-26T10:06:03.365Z,5.00
2019-04-26T10:06:39.545Z,4.90
2019-04-26T10:07:15.003Z,4.37
2019-04-26T10:07:50.795Z,4.80
2019-04-26T10:08:26.252Z,4.40
2019-04-26T10:09:01.788Z,5.27
2019-04-26T10:09:37.252Z,5.93
2019-04-26T10:10:22.772Z,5.37
2019-04-26T10:10:51.773Z,5.33
2019-04-26T10:11:31.686Z,4.60
2019-04-26T10:12:18.112Z,5.23
2019-04-26T10:13:31.022Z,7.57
2019-04-26T10:14:12.957Z,5.20
2019-04-26T10:14:53.084Z,5.63
2019-04-26T10:16:02.486Z,5.07
2019-04-26T10:16:54.881Z,5.43
2019-04-26T10:17:32.512Z,5.00
2019-04-26T10:18:08.319Z,5.80
2019-04-26T10:18:46.912Z,4.93
2019-04-26T10:19:37.028Z,5.27
2019-04-26T10:20:13.161Z,5.10
2019-04-26T10:20:48.624Z,7.13
2019-04-26T10:21:27.396Z,8.03
2019-04-26T10:22:02.924Z,4.80
2019-04-26T10:22:38.689Z,5.47
2019-04-26T10:23:14.617Z,5.20
2019-04-26T10:23:50.275Z,5.20
2019-04-26T10:24:25.944Z,5.70
2019-04-26T10:25:02.296Z,4.67
2019-04-26T10:25:39.036Z,7.20
2019-04-26T10:26:14.783Z,5.20
2019-04-26T10:26:50.208Z,5.53
2019-04-26T10:27:26.165Z,4.73
2019-04-26T10:28:01.636Z,7.97
2019-04-26T10:28:37.530Z,4.83
2019-04-26T10:29:13.810Z,5.40
2019-04-26T10:29:49.618Z,5.47
2019-04-26T10:30:25.475Z,6.87
2019-04-26T10:31:01.358Z,6.53
2019-04-26T10:31:36.817Z,7.57
2019-04-26T10:32:13.009Z,5.37
2019-04-26T10:32:48.464Z,6.83
2019-04-26T10:33:23.918Z,7.63
2019-04-26T10:33:59.566Z,5.57
2019-04-26T10:34:35.038Z,5.80
2019-04-26T10:35:10.782Z,5.17
2019-04-26T10:35:46.932Z,7.13
2019-04-26T10:36:22.410Z,5.87
2019-04-26T10:37:01.524Z,4.80
2019-04-26T10:37:39.704Z,5.33